createdAt,value
2019-04-25T00:02:02.015Z,14.50
2019-04-25T00:04:28.106Z,14.57
2019-04-25T00:06:53.888Z,14.03
2019-04-25T00:09:22.026Z,13.87
2019-04-25T00:11:48.932Z,15.00
2019-04-25T00:14:15.265Z,13.50
2019-04-25T00:16:44.057Z,13.87
2019-04-25T00:19:09.953Z,14.80
2019-04-25T00:21:42.199Z,13.60
2019-04-25T00:24:12.837Z,15.10
2019-04-25T00:26:44.401Z,14.27
2019-04-25T00:29:10.978Z,13.57
2019-04-25T00:31:36.766Z,14.80
2019-04-25T00:34:02.965Z,15.07
2019-04-25T00:36:28.750Z,15.20
2019-04-25T00:38:54.536Z,15.30
2019-04-25T00:41:21.331Z,15.00
2019-04-25T00:43:47.473Z,14.20
2019-04-25T00:46:13.288Z,13.30
2019-04-25T00:48:39.079Z,12.00
2019-04-25T00:51:04.855Z,10.37
2019-04-25T00:53:32.260Z,8.77
2019-04-25T00:55:58.142Z,7.87
2019-04-25T00:58:37.484Z,7.10
2019-04-25T01:01:17.062Z,6.47
2019-04-25T01:03:44.144Z,6.90
2019-04-25T01:06:12.015Z,6.20
2019-04-25T01:08:37.855Z,5.03
2019-04-25T01:11:03.643Z,5.23
2019-04-25T01:13:29.570Z,5.47
2019-04-25T01:15:55.688Z,4.90
2019-04-25T01:18:23.041Z,4.53
2019-04-25T01:20:49.555Z,4.00
2019-04-25T01:23:15.601Z,4.00
2019-04-25T01:25:44.275Z,4.57
2019-04-25T01:28:09.071Z,4.07
2019-04-25T01:30:34.869Z,3.83
2019-04-25T01:33:00.764Z,3.50
2019-04-25T01:35:28.499Z,3.30
2019-04-25T01:38:04.774Z,3.90
2019-04-25T01:40:49.506Z,4.30
2019-04-25T01:43:35.332Z,3.73
2019-04-25T01:46:03.248Z,3.30
2019-04-25T01:48:29.152Z,3.30
2019-04-25T01:50:55.475Z,4.10
2019-04-25T01:53:21.527Z,3.57
2019-04-25T01:55:56.126Z,3.37
2019-04-25T01:58:15.003Z,3.87
2019-04-25T02:00:48.235Z,4.30
2019-04-25T02:03:14.018Z,3.23
2019-04-25T02:05:39.804Z,3.53
2019-04-25T02:08:06.926Z,3.67
2019-04-25T02:10:34.432Z,3.20
2019-04-25T02:13:07.769Z,3.77
2019-04-25T02:15:33.632Z,3.53
2019-04-25T02:18:00.350Z,3.27
2019-04-25T02:20:26.431Z,4.03
2019-04-25T02:22:52.314Z,3.53
2019-04-25T02:25:18.538Z,3.80
2019-04-25T02:27:44.311Z,3.80
2019-04-25T02:30:11.391Z,4.10
2019-04-25T02:32:37.431Z,3.77
2019-04-25T02:35:09.076Z,3.70
2019-04-25T02:37:34.952Z,3.60
2019-04-25T02:40:01.705Z,3.67
2019-04-25T02:42:28.074Z,3.73
2019-04-25T02:44:57.886Z,4.03
2019-04-25T02:47:28.259Z,3.43
2019-04-25T02:49:58.406Z,3.87
2019-04-25T02:52:25.564Z,3.83
2019-04-25T02:54:51.346Z,2.93
2019-04-25T02:57:17.136Z,2.90
2019-04-25T02:59:44.831Z,2.50
2019-04-25T03:02:10.717Z,2.87
2019-04-25T03:04:36.506Z,2.90
2019-04-25T03:07:07.185Z,4.00
2019-04-25T03:09:30.191Z,4.47
2019-04-25T03:11:58.228Z,6.40
2019-04-25T03:14:24.738Z,8.40
2019-04-25T03:16:51.431Z,10.43
2019-04-25T03:19:35.385Z,12.03
2019-04-25T03:22:10.080Z,12.73
2019-04-25T03:24:35.278Z,12.07
2019-04-25T03:27:01.091Z,12.20
2019-04-25T03:29:26.878Z,13.07
2019-04-25T03:31:55.626Z,12.53
2019-04-25T03:34:20.953Z,13.60
2019-04-25T03:36:46.846Z,13.60
2019-04-25T03:39:14.481Z,14.23
2019-04-25T03:41:40.333Z,13.47
2019-04-25T03:44:06.494Z,13.70
2019-04-25T03:46:33.398Z,13.53
2019-04-25T03:48:59.240Z,12.17
2019-04-25T03:51:25.029Z,12.13
2019-04-25T03:53:50.833Z,11.70
2019-04-25T03:56:16.660Z,10.60
2019-04-25T03:58:43.962Z,10.73
2019-04-25T04:01:09.852Z,9.90
2019-04-25T04:03:35.661Z,9.23
2019-04-25T04:06:01.448Z,9.70
2019-04-25T04:08:27.248Z,10.07
2019-04-25T04:10:54.344Z,9.10
2019-04-25T04:13:20.240Z,8.90
2019-04-25T04:15:46.018Z,9.63
2019-04-25T04:18:17.270Z,9.30
2019-04-25T04:21:01.336Z,9.17
2019-04-25T04:23:34.962Z,9.77
2019-04-25T04:26:06.322Z,8.80
2019-04-25T04:28:33.652Z,8.90
2019-04-25T04:30:59.501Z,8.77
2019-04-25T04:33:31.833Z,9.20
2019-04-25T04:35:54.340Z,9.00
2019-04-25T04:38:20.157Z,9.07
2019-04-25T04:40:45.957Z,8.50
2019-04-25T04:43:11.795Z,8.43
2019-04-25T04:45:37.531Z,8.60
2019-04-25T04:48:03.365Z,8.73
2019-04-25T04:50:29.145Z,8.73
2019-04-25T04:52:54.946Z,9.10
2019-04-25T04:55:20.758Z,8.63
2019-04-25T04:57:46.550Z,8.30
2019-04-25T05:00:14.276Z,8.30
2019-04-25T05:02:47.476Z,8.73
2019-04-25T05:05:34.305Z,8.53
2019-04-25T05:08:04.734Z,8.90
2019-04-25T05:10:30.550Z,8.47
2019-04-25T05:12:56.349Z,8.63
2019-04-25T05:15:24.523Z,9.00
2019-04-25T05:17:49.861Z,9.90
2019-04-25T05:20:17.306Z,9.83
2019-04-25T05:22:44.539Z,9.87
2019-04-25T05:25:10.641Z,10.50
2019-04-25T05:27:50.708Z,10.40
2019-04-25T05:30:05.814Z,10.30
2019-04-25T05:32:31.647Z,10.43
2019-04-25T05:34:57.402Z,10.27
2019-04-25T05:37:24.043Z,11.53
2019-04-25T05:39:50.880Z,10.70
2019-04-25T05:42:18.584Z,12.23
2019-04-25T05:44:44.389Z,11.17
2019-04-25T05:47:10.200Z,12.40
2019-04-25T05:49:35.974Z,9.70
2019-04-25T05:52:01.768Z,11.03
2019-04-25T05:54:27.551Z,10.80
2019-04-25T05:56:53.805Z,12.07
2019-04-25T05:59:19.626Z,10.83
2019-04-25T06:01:45.413Z,10.47
2019-04-25T06:04:11.202Z,10.97
2019-04-25T06:06:37.019Z,10.37
2019-04-25T06:09:09.972Z,9.80
2019-04-25T06:11:40.429Z,10.00
2019-04-25T06:14:08.129Z,10.70
2019-04-25T06:16:34.044Z,10.23
2019-04-25T06:19:12.954Z,10.67
2019-04-25T06:21:29.433Z,10.23
2019-04-25T06:24:13.544Z,9.60
2019-04-25T06:26:41.267Z,9.90
2019-04-25T06:29:07.058Z,9.20
2019-04-25T06:31:34.176Z,9.20
2019-04-25T06:34:00.043Z,9.57
2019-04-25T06:36:25.824Z,9.27
2019-04-25T06:38:51.608Z,8.67
2019-04-25T06:41:17.390Z,8.17
2019-04-25T06:43:45.087Z,9.13
2019-04-25T06:46:15.337Z,8.90
2019-04-25T06:48:45.229Z,8.73
2019-04-25T06:51:10.939Z,8.17
2019-04-25T06:53:36.728Z,8.00
2019-04-25T06:56:03.503Z,8.43
2019-04-25T06:58:30.136Z,8.60
2019-04-25T07:01:00.652Z,8.47
2019-04-25T07:03:25.165Z,9.37
2019-04-25T07:05:51.361Z,8.97
2019-04-25T07:08:17.159Z,7.83
2019-04-25T07:10:44.589Z,7.23
2019-04-25T07:13:10.544Z,6.43
2019-04-25T07:15:36.324Z,6.60
2019-04-25T07:18:03.755Z,6.67
2019-04-25T07:20:30.237Z,7.00
2019-04-25T07:22:56.042Z,6.37
2019-04-25T07:25:26.312Z,6.13
2019-04-25T07:27:53.581Z,5.80
2019-04-25T07:30:31.912Z,5.93
2019-04-25T07:33:03.865Z,6.43
2019-04-25T07:35:29.717Z,5.47
2019-04-25T07:37:55.556Z,4.87
2019-04-25T07:40:21.670Z,5.00
2019-04-25T07:42:47.459Z,5.10
2019-04-25T07:45:15.187Z,4.80
2019-04-25T07:47:41.052Z,4.03
2019-04-25T07:50:07.332Z,4.30
2019-04-25T07:52:34.336Z,3.80
2019-04-25T07:55:00.629Z,4.10
2019-04-25T07:57:26.959Z,3.30
2019-04-25T07:59:53.814Z,3.37
2019-04-25T08:02:19.657Z,3.30
2019-04-25T08:04:45.524Z,3.30
2019-04-25T08:07:11.401Z,2.90
2019-04-25T08:09:37.981Z,2.00
2019-04-25T08:12:03.886Z,2.37
2019-04-25T08:14:32.068Z,2.20
2019-04-25T08:17:00.185Z,2.00
2019-04-25T08:19:26.100Z,2.40
2019-04-25T08:21:53.747Z,2.70
2019-04-25T08:24:19.962Z,2.90
2019-04-25T08:26:45.793Z,3.10
2019-04-25T08:29:12.917Z,2.73
2019-04-25T08:31:39.476Z,2.70
2019-04-25T08:34:05.246Z,2.83
2019-04-25T08:36:31.223Z,2.13
2019-04-25T08:38:57.011Z,2.00
2019-04-25T08:41:23.892Z,2.10
2019-04-25T08:43:49.732Z,2.40
2019-04-25T08:46:15.509Z,2.43
2019-04-25T08:49:02.369Z,2.50
2019-04-25T08:51:36.506Z,2.30
2019-04-25T08:54:04.287Z,2.20
2019-04-25T08:56:33.909Z,1.73
2019-04-25T08:59:07.938Z,1.60
2019-04-25T09:01:38.942Z,1.47
2019-04-25T09:04:05.151Z,1.50
2019-04-25T09:06:31.762Z,1.60
2019-04-25T09:08:58.620Z,1.40
2019-04-25T09:11:24.550Z,1.40
2019-04-25T09:13:50.299Z,1.40
2019-04-25T09:16:16.084Z,1.20
2019-04-25T09:18:41.870Z,1.40
2019-04-25T09:21:07.664Z,1.30
2019-04-25T09:23:36.204Z,1.30
2019-04-25T09:26:01.176Z,1.20
2019-04-25T09:28:26.954Z,1.30
2019-04-25T09:30:53.993Z,1.40
2019-04-25T09:33:20.068Z,1.27
2019-04-25T09:35:46.133Z,1.23
2019-04-25T09:38:13.318Z,1.30
2019-04-25T09:40:39.528Z,1.13
2019-04-25T09:43:05.335Z,1.00
2019-04-25T09:45:36.110Z,1.10
2019-04-25T09:48:04.691Z,1.17
2019-04-25T09:50:45.155Z,1.10
2019-04-25T09:53:21.888Z,1.20
2019-04-25T09:55:44.093Z,1.20
2019-04-25T09:58:17.967Z,1.20
2019-04-25T10:01:00.877Z,0.90
2019-04-25T10:03:26.763Z,1.00
2019-04-25T10:05:52.548Z,1.13
2019-04-25T10:08:18.337Z,1.10
2019-04-25T10:10:44.637Z,1.20
2019-04-25T10:13:10.594Z,1.27
2019-04-25T10:15:49.257Z,0.87
2019-04-25T10:18:15.059Z,0.90
2019-04-25T10:20:41.196Z,1.03
2019-04-25T10:23:08.164Z,1.03
2019-04-25T10:25:33.971Z,1.10
2019-04-25T10:27:59.765Z,0.97
2019-04-25T10:30:26.062Z,1.10
2019-04-25T10:32:53.185Z,1.00
2019-04-25T10:35:19.616Z,1.10
2019-04-25T10:37:46.496Z,1.10
2019-04-25T10:40:13.430Z,1.17
2019-04-25T10:42:40.602Z,1.10
2019-04-25T10:45:06.710Z,1.00
2019-04-25T10:47:33.468Z,1.00
2019-04-25T10:50:00.199Z,1.17
2019-04-25T10:52:26.073Z,1.00
2019-04-25T10:54:52.616Z,1.00
2019-04-25T10:57:22.441Z,1.00
2019-04-25T11:00:00.747Z,0.90
2019-04-25T11:02:16.100Z,0.90
2019-04-25T11:04:44.582Z,1.00
2019-04-25T11:07:11.506Z,1.30
2019-04-25T11:09:37.297Z,0.87
2019-04-25T11:12:04.581Z,1.00
2019-04-25T11:14:30.568Z,1.20
2019-04-25T11:16:56.476Z,1.13
2019-04-25T11:19:23.841Z,1.10
2019-04-25T11:21:49.723Z,1.03
2019-04-25T11:24:15.527Z,1.10
2019-04-25T11:26:41.528Z,0.97
2019-04-25T11:29:07.400Z,1.00
2019-04-25T11:31:35.081Z,1.00
2019-04-25T11:34:01.346Z,1.00
2019-04-25T11:36:27.159Z,0.93
2019-04-25T11:38:54.953Z,0.93
2019-04-25T11:41:24.155Z,1.07
2019-04-25T11:43:50.739Z,1.20
2019-04-25T11:46:16.853Z,1.00
2019-04-25T11:48:44.194Z,1.00
2019-04-25T11:51:10.521Z,0.97
2019-04-25T11:53:36.291Z,1.10
2019-04-25T11:56:03.631Z,1.10
2019-04-25T11:58:29.662Z,1.20
2019-04-25T12:00:57.921Z,0.93
2019-04-25T12:03:24.588Z,1.10
2019-04-25T12:05:50.991Z,1.20
2019-04-25T12:08:16.928Z,1.13
2019-04-25T12:10:45.412Z,1.10
2019-04-25T12:13:10.516Z,1.20
2019-04-25T12:15:36.328Z,1.20
2019-04-25T12:18:02.117Z,1.23
2019-04-25T12:20:27.939Z,1.10
2019-04-25T12:23:05.613Z,1.33
2019-04-25T12:25:21.432Z,1.00
2019-04-25T12:27:48.659Z,1.20
2019-04-25T12:30:15.131Z,1.40
2019-04-25T12:32:41.243Z,1.43
2019-04-25T12:35:07.265Z,1.20
2019-04-25T12:37:33.727Z,1.50
2019-04-25T12:39:59.534Z,1.60
2019-04-25T12:42:25.325Z,1.50
2019-04-25T12:45:04.925Z,1.60
2019-04-25T12:47:34.259Z,1.67
2019-04-25T12:50:00.206Z,1.70
2019-04-25T12:52:25.998Z,1.43
2019-04-25T12:54:51.807Z,1.53
2019-04-25T12:57:18.017Z,1.37
2019-04-25T12:59:45.165Z,1.70
2019-04-25T13:02:10.998Z,1.33
2019-04-25T13:04:36.778Z,1.60
2019-04-25T13:07:04.058Z,1.50
2019-04-25T13:09:30.463Z,1.47
2019-04-25T13:11:56.259Z,1.30
2019-04-25T13:14:22.990Z,1.63
2019-04-25T13:16:48.959Z,1.20
2019-04-25T13:19:21.778Z,1.20
2019-04-25T13:21:43.276Z,1.20
2019-04-25T13:24:10.452Z,1.50
2019-04-25T13:26:38.210Z,1.20
2019-04-25T13:29:06.738Z,1.10
2019-04-25T13:31:50.674Z,1.20
2019-04-25T13:34:18.374Z,1.33
2019-04-25T13:36:44.406Z,1.13
2019-04-25T13:39:13.234Z,1.10
2019-04-25T13:41:39.865Z,1.20
2019-04-25T13:44:05.661Z,1.03
2019-04-25T13:46:32.630Z,1.03
2019-04-25T13:48:59.160Z,1.20
2019-04-25T13:51:25.045Z,1.00
2019-04-25T13:53:50.835Z,1.27
2019-04-25T13:56:16.908Z,1.17
2019-04-25T13:58:44.180Z,1.00
2019-04-25T14:01:15.109Z,1.20
2019-04-25T14:03:39.764Z,1.00
2019-04-25T14:06:05.945Z,1.23
2019-04-25T14:08:33.391Z,1.00
2019-04-25T14:10:59.313Z,1.30
2019-04-25T14:13:26.313Z,1.40
2019-04-25T14:16:03.555Z,1.40
2019-04-25T14:18:49.154Z,1.50
2019-04-25T14:21:19.195Z,1.20
2019-04-25T14:23:45.002Z,1.10
2019-04-25T14:26:11.188Z,1.20
2019-04-25T14:28:36.982Z,1.17
2019-04-25T14:31:03.767Z,1.03
2019-04-25T14:33:30.587Z,1.47
2019-04-25T14:35:56.457Z,1.47
2019-04-25T14:38:24.367Z,1.17
2019-04-25T14:40:49.930Z,1.30
2019-04-25T14:43:15.723Z,1.10
2019-04-25T14:45:44.988Z,0.90
2019-04-25T14:48:09.326Z,1.30
2019-04-25T14:50:36.145Z,1.30
2019-04-25T14:53:01.898Z,1.10
2019-04-25T14:55:41.262Z,1.20
2019-04-25T14:58:08.962Z,1.40
2019-04-25T15:00:36.662Z,1.10
2019-04-25T15:03:02.833Z,1.67
2019-04-25T15:05:28.623Z,1.30
2019-04-25T15:07:54.465Z,1.20
2019-04-25T15:10:20.345Z,1.27
2019-04-25T15:12:46.499Z,1.20
2019-04-25T15:15:12.419Z,1.50
2019-04-25T15:17:46.222Z,1.33
2019-04-25T15:20:06.129Z,1.20
2019-04-25T15:22:34.674Z,1.30
2019-04-25T15:25:00.790Z,1.57
2019-04-25T15:27:26.593Z,1.33
2019-04-25T15:29:52.484Z,1.23
2019-04-25T15:32:20.183Z,1.23
2019-04-25T15:34:50.461Z,1.33
2019-04-25T15:37:18.141Z,1.20
2019-04-25T15:39:45.856Z,1.10
2019-04-25T15:42:29.959Z,1.10
2019-04-25T15:44:57.650Z,1.10
2019-04-25T15:47:26.410Z,1.20
2019-04-25T15:49:52.775Z,1.20
2019-04-25T15:52:20.525Z,1.03
2019-04-25T15:54:46.319Z,1.13
2019-04-25T15:57:12.430Z,1.27
2019-04-25T15:59:38.220Z,1.30
2019-04-25T16:02:08.226Z,1.10
2019-04-25T16:04:34.535Z,1.00
2019-04-25T16:07:00.349Z,1.10
2019-04-25T16:09:26.787Z,1.40
2019-04-25T16:11:53.517Z,1.10
2019-04-25T16:14:19.296Z,1.10
2019-04-25T16:16:45.094Z,1.20
2019-04-25T16:19:10.869Z,1.20
2019-04-25T16:21:37.679Z,1.20
2019-04-25T16:24:03.866Z,1.13
2019-04-25T16:26:29.671Z,1.20
2019-04-25T16:28:55.448Z,1.10
2019-04-25T16:31:23.164Z,1.30
2019-04-25T16:33:49.154Z,1.43
2019-04-25T16:36:15.079Z,1.30
2019-04-25T16:38:41.093Z,1.20
2019-04-25T16:41:07.051Z,1.10
2019-04-25T16:43:35.245Z,1.20
2019-04-25T16:46:01.047Z,1.20
2019-04-25T16:48:26.829Z,1.07
2019-04-25T16:50:52.620Z,1.40
2019-04-25T16:53:18.418Z,1.30
2019-04-25T16:55:44.248Z,1.13
2019-04-25T16:58:10.261Z,1.20
2019-04-25T17:00:38.351Z,1.10
2019-04-25T17:03:04.157Z,1.20
2019-04-25T17:05:32.421Z,1.20
2019-04-25T17:07:58.258Z,1.10
2019-04-25T17:10:24.225Z,1.00
2019-04-25T17:12:50.019Z,1.23
2019-04-25T17:15:32.352Z,0.90
2019-04-25T17:18:08.832Z,2.47
2019-04-25T17:20:36.777Z,1.30
2019-04-25T17:23:02.704Z,1.30
2019-04-25T17:25:28.592Z,1.30
2019-04-25T17:27:54.381Z,1.00
2019-04-25T17:30:20.394Z,1.07
2019-04-25T17:32:53.962Z,1.20
2019-04-25T17:35:29.398Z,1.10
2019-04-25T17:38:02.708Z,1.50
2019-04-25T17:40:32.823Z,1.20
2019-04-25T17:43:10.470Z,1.30
2019-04-25T17:45:29.126Z,1.57
2019-04-25T17:47:55.134Z,1.60
2019-04-25T17:50:20.913Z,1.67
2019-04-25T17:52:46.721Z,1.40
2019-04-25T17:55:12.525Z,1.80
2019-04-25T17:57:38.346Z,2.27
2019-04-25T18:00:09.282Z,1.83
2019-04-25T18:02:35.105Z,1.60
2019-04-25T18:05:00.905Z,1.20
2019-04-25T18:07:26.682Z,1.20
2019-04-25T18:09:52.470Z,1.40
2019-04-25T18:12:18.341Z,1.30
2019-04-25T18:14:44.705Z,1.40
2019-04-25T18:17:10.483Z,1.30
2019-04-25T18:19:38.575Z,1.17
2019-04-25T18:22:09.158Z,1.47
2019-04-25T18:24:45.539Z,1.50
2019-04-25T18:27:13.223Z,1.40
2019-04-25T18:29:39.487Z,1.43
2019-04-25T18:32:05.309Z,1.50
2019-04-25T18:34:38.817Z,1.67
2019-04-25T18:37:06.516Z,1.63
2019-04-25T18:39:34.234Z,1.63
2019-04-25T18:42:04.505Z,1.67
2019-04-25T18:44:30.292Z,1.50
2019-04-25T18:46:56.089Z,1.50
2019-04-25T18:49:21.909Z,1.60
2019-04-25T18:51:56.430Z,1.80
2019-04-25T18:54:24.274Z,1.33
2019-04-25T18:57:00.929Z,1.47
2019-04-25T18:59:38.684Z,1.67
2019-04-25T19:02:16.155Z,1.27
2019-04-25T19:04:52.456Z,1.70
2019-04-25T19:07:22.622Z,1.70
2019-04-25T19:09:47.055Z,1.80
2019-04-25T19:12:12.959Z,1.70
2019-04-25T19:14:39.912Z,1.90
2019-04-25T19:17:07.944Z,1.90
2019-04-25T19:19:33.746Z,2.03
2019-04-25T19:21:59.556Z,1.93
2019-04-25T19:24:25.375Z,2.10
2019-04-25T19:26:52.218Z,2.00
2019-04-25T19:29:18.069Z,2.20
2019-04-25T19:31:44.304Z,2.10
2019-04-25T19:34:10.149Z,2.37
2019-04-25T19:36:35.939Z,2.10
2019-04-25T19:39:02.018Z,2.40
2019-04-25T19:41:29.714Z,2.70
2019-04-25T19:43:57.437Z,2.53
2019-04-25T19:46:27.898Z,2.50
2019-04-25T19:48:53.738Z,2.47
2019-04-25T19:51:19.535Z,2.73
2019-04-25T19:53:45.338Z,2.73
2019-04-25T19:56:11.165Z,2.60
2019-04-25T19:58:36.955Z,2.50
2019-04-25T20:01:03.749Z,2.40
2019-04-25T20:03:31.425Z,2.47
2019-04-25T20:06:15.554Z,2.60
2019-04-25T20:08:49.059Z,2.60
2019-04-25T20:11:19.554Z,2.77
2019-04-25T20:13:45.459Z,2.83
2019-04-25T20:16:11.530Z,2.70
2019-04-25T20:18:37.314Z,3.03
2019-04-25T20:21:03.123Z,3.23
2019-04-25T20:23:28.930Z,3.50
2019-04-25T20:25:57.099Z,2.70
2019-04-25T20:28:22.508Z,2.97
2019-04-25T20:30:48.548Z,3.10
2019-04-25T20:33:14.385Z,3.00
2019-04-25T20:35:40.166Z,3.20
2019-04-25T20:38:05.954Z,3.20
2019-04-25T20:40:31.737Z,2.90
2019-04-25T20:42:57.532Z,3.10
2019-04-25T20:45:23.345Z,2.90
2019-04-25T20:47:50.018Z,2.77
2019-04-25T20:50:15.828Z,2.90
2019-04-25T20:52:41.618Z,3.03
2019-04-25T20:55:07.496Z,3.00
2019-04-25T20:57:34.606Z,2.87
2019-04-25T21:00:00.386Z,2.90
2019-04-25T21:02:26.182Z,3.10
2019-04-25T21:04:52.180Z,3.37
2019-04-25T21:07:18.208Z,2.90
2019-04-25T21:09:44.265Z,2.60
2019-04-25T21:12:10.050Z,3.03
2019-04-25T21:14:37.891Z,3.23
2019-04-25T21:17:21.757Z,2.50
2019-04-25T21:19:50.472Z,3.03
2019-04-25T21:22:17.333Z,2.90
2019-04-25T21:24:43.132Z,2.70
2019-04-25T21:27:09.100Z,3.03
2019-04-25T21:29:34.996Z,2.90
2019-04-25T21:32:01.115Z,2.40
2019-04-25T21:34:29.882Z,2.70
2019-04-25T21:36:55.507Z,2.80
2019-04-25T21:39:40.733Z,3.00
2019-04-25T21:42:10.120Z,2.87
2019-04-25T21:44:36.161Z,2.77
2019-04-25T21:47:02.006Z,2.60
2019-04-25T21:49:28.818Z,3.10
2019-04-25T21:51:55.080Z,3.30
2019-04-25T21:54:21.184Z,3.00
2019-04-25T21:56:47.197Z,2.90
2019-04-25T21:59:13.276Z,2.80
2019-04-25T22:01:40.886Z,2.93
2019-04-25T22:04:06.847Z,2.83
2019-04-25T22:06:33.020Z,2.80
2019-04-25T22:08:58.811Z,2.87
2019-04-25T22:11:24.870Z,2.90
2019-04-25T22:13:51.042Z,3.13
2019-04-25T22:16:17.134Z,3.10
2019-04-25T22:18:43.181Z,3.10
2019-04-25T22:21:09.280Z,3.00
2019-04-25T22:23:35.349Z,3.43
2019-04-25T22:26:01.466Z,3.40
2019-04-25T22:28:28.351Z,3.70
2019-04-25T22:30:57.715Z,3.80
2019-04-25T22:33:34.028Z,3.40
2019-04-25T22:36:16.412Z,4.03
2019-04-25T22:38:42.192Z,3.90
2019-04-25T22:41:08.083Z,4.13
2019-04-25T22:43:35.970Z,4.57
2019-04-25T22:46:02.160Z,4.80
2019-04-25T22:48:46.639Z,4.10
2019-04-25T22:51:12.432Z,5.00
2019-04-25T22:53:38.317Z,4.73
2019-04-25T22:56:04.107Z,5.00
2019-04-25T22:58:30.256Z,5.30
2019-04-25T23:00:56.279Z,5.70
2019-04-25T23:03:23.985Z,6.13
2019-04-25T23:05:51.721Z,6.23
2019-04-25T23:08:17.705Z,6.53
2019-04-25T23:10:43.498Z,6.20
2019-04-25T23:13:09.273Z,6.13
2019-04-25T23:15:35.064Z,6.50
2019-04-25T23:18:01.043Z,6.47
2019-04-25T23:20:26.842Z,6.97
2019-04-25T23:22:52.633Z,6.73
2019-04-25T23:25:20.645Z,7.40
2019-04-25T23:27:51.124Z,7.50
2019-04-25T23:30:19.039Z,7.63
2019-04-25T23:32:44.817Z,8.20
2019-04-25T23:35:24.207Z,8.40
2019-04-25T23:37:38.520Z,8.63
2019-04-25T23:40:05.148Z,10.13
2019-04-25T23:42:32.036Z,9.93
2019-04-25T23:44:58.115Z,10.27
2019-04-25T23:47:23.902Z,10.30
2019-04-25T23:49:49.707Z,9.77
2019-04-25T23:52:15.699Z,10.33
2019-04-25T23:54:41.523Z,10.90
2019-04-25T23:57:08.249Z,10.80
2019-04-25T23:59:34.919Z,11.47
